In Rescue
 
Open Full Screen Window  High Contrast Mode
January 28, 2020 10:02 PM CST
Weather Information
Wind Direction
  ---
Wind Speed
  00 kt (0 mph)
Wind Gust
  00 kt (0 mph)
Altimeter
30.11 in
Visibility
10 SM
Temperature
-08° C
18° F
Dewpoint
-10° C
14° F
Humidity
86%
1hr Rain Fall
00.00 in.
24hr Rain Fall
00.00 in.
Sky Condition
Overcast @ 1,000 ft
MVFR

METAR KFKA 290402Z AUTO 00000KT 10SM OVC010 M08/M10 A3011 RMK AO2 T10851101

FAA Disclaimer: The data displayed is for advisory purposes only and is not to be used for flight planning or operations.